Time;durP1;ratioP1;P1;durP2;ratioP2;P2;SDS_P1;SDS_P2;PMS_P1;PMS_P2;Temp;Humidity;BMP_temperature;BMP_pressure;BME280_temperature;BME280_humidity;BME280_pressure;Samples;Min_cycle;Max_cycle;Signal;HPM_P1;HPM_P2
2023/01/25 00:00:38;;;;;;;;;;;;;;;2.00;97.10;103843.09;5076493;28;20243;-78
2023/01/25 00:03:03;;;;;;;;;;;;;;;2.01;97.53;103843.97;5076871;28;20117;-78
2023/01/25 00:05:28;;;;;;;;;;;;;;;2.01;97.00;103839.66;5075617;28;20174;-78
2023/01/25 00:07:53;;;;;;;;;;;;;;;2.00;97.39;103844.78;5077798;28;19924;-78
2023/01/25 00:10:19;;;;;;;;;;;;;;;2.00;97.20;103845.69;5081196;28;19947;-78
2023/01/25 00:12:44;;;;;;;;;;;;;;;1.99;97.27;103833.56;5081800;28;19939;-78
2023/01/25 00:15:09;;;;;;;;;;;;;;;1.98;97.07;103833.50;5094786;28;20112;-78
2023/01/25 00:17:35;;;;;;;;;;;;;;;1.98;97.05;103825.72;5082851;28;19928;-78
2023/01/25 00:20:00;;;;;;;;;;;;;;;1.98;97.36;103820.56;5080702;28;19964;-78
2023/01/25 00:22:25;;;;;;;;;;;;;;;1.98;97.44;103810.22;5082051;28;19965;-78
2023/01/25 00:24:50;;;;;;;;;;;;;;;1.98;97.51;103812.81;5082813;28;19936;-78
2023/01/25 00:27:16;;;;;;;;;;;;;;;2.00;97.70;103813.75;5080416;28;20220;-78
2023/01/25 00:29:41;;;;;;;;;;;;;;;1.99;97.73;103807.72;5084085;28;20170;-78
2023/01/25 00:32:26;;;;;;;;;;;;;;;2.00;97.81;103803.41;5081232;28;19921;-78
2023/01/25 00:34:51;;;;;;;;;;;;;;;2.01;97.94;103800.03;5094673;28;19983;-78
2023/01/25 00:37:17;;;;;;;;;;;;;;;2.02;98.19;103797.50;5087506;28;20061;-78
2023/01/25 00:39:42;;;;;;;;;;;;;;;2.03;98.17;103794.09;5083607;28;19920;-78
2023/01/25 00:42:11;;;;;;;;;;;;;;;2.04;98.40;103792.41;5080934;28;20192;-78
2023/01/25 00:44:37;;;;;;;;;;;;;;;2.04;98.42;103787.22;5090901;28;19925;-78
2023/01/25 00:47:04;;;;;;;;;;;;;;;2.04;98.54;103793.28;5081546;28;19930;-78
2023/01/25 00:49:30;;;;;;;;;;;;;;;2.03;98.43;103785.44;5079499;28;20171;-78
2023/01/25 00:51:56;;;;;;;;;;;;;;;2.02;98.55;103792.34;5080451;28;19924;-78
2023/01/25 00:54:21;;;;;;;;;;;;;;;2.02;98.55;103788.84;5087079;28;20444;-78
2023/01/25 00:56:47;;;;;;;;;;;;;;;2.02;98.58;103792.34;5079172;28;19920;-78
2023/01/25 00:59:12;;;;;;;;;;;;;;;2.02;98.81;103792.34;5087972;28;20010;-78
2023/01/25 01:01:39;;;;;;;;;;;;;;;2.02;98.66;103792.34;5080252;28;19967;-78
2023/01/25 01:04:05;;;;;;;;;;;;;;;2.03;98.82;103795.78;5085432;28;19935;-78
2023/01/25 01:06:30;;;;;;;;;;;;;;;2.02;98.94;103792.34;5082218;28;19928;-78
2023/01/25 01:08:55;;;;;;;;;;;;;;;2.03;98.93;103790.63;5079978;28;19996;-78
2023/01/25 01:11:20;;;;;;;;;;;;;;;2.02;98.92;103789.75;5079793;28;19921;-78
2023/01/25 01:13:46;;;;;;;;;;;;;;;2.02;98.76;103783.69;5079491;28;19920;-78
2023/01/25 01:16:11;;;;;;;;;;;;;;;2.01;98.87;103777.63;5086712;28;19919;-78
2023/01/25 01:18:41;;;;;;;;;;;;;;;2.01;98.98;103776.75;5082953;28;20181;-78
2023/01/25 01:21:09;;;;;;;;;;;;;;;2.00;99.09;103777.56;5088135;28;19920;-78
2023/01/25 01:23:34;;;;;;;;;;;;;;;2.01;99.10;103772.47;5081772;28;20257;-78
2023/01/25 01:26:00;;;;;;;;;;;;;;;2.00;99.12;103773.31;5079541;28;19916;-78
2023/01/25 01:28:29;;;;;;;;;;;;;;;2.01;99.30;103789.69;5081856;28;19962;-78
2023/01/25 01:30:58;;;;;;;;;;;;;;;1.99;99.16;103791.31;5078460;28;20224;-78
2023/01/25 01:33:24;;;;;;;;;;;;;;;1.99;99.31;103787.03;5087441;28;19932;-78
2023/01/25 01:35:49;;;;;;;;;;;;;;;2.00;99.28;103783.63;5079994;28;20103;-78
2023/01/25 01:38:14;;;;;;;;;;;;;;;2.01;99.43;103787.09;5093376;28;19960;-78
2023/01/25 01:40:43;;;;;;;;;;;;;;;2.00;99.51;103778.47;5087277;28;20211;-78
2023/01/25 01:43:17;;;;;;;;;;;;;;;2.02;99.46;103783.69;5081638;28;19919;-78
2023/01/25 01:45:43;;;;;;;;;;;;;;;2.01;99.59;103780.22;5079335;28;19974;-78
2023/01/25 01:48:44;;;;;;;;;;;;;;;2.01;99.52;103782.81;5092500;28;19983;-78
2023/01/25 01:51:27;;;;;;;;;;;;;;;2.01;99.69;103774.16;5028827;28;20004;-78
2023/01/25 01:54:13;;;;;;;;;;;;;;;2.01;99.64;103777.63;5071041;28;19988;-78
2023/01/25 01:56:47;;;;;;;;;;;;;;;2.00;99.64;103787.91;5086791;28;19924;-78
2023/01/25 01:59:12;;;;;;;;;;;;;;;1.94;97.45;103783.34;5083137;28;19927;-78
2023/01/25 02:01:38;;;;;;;;;;;;;;;1.91;97.21;103789.28;5078613;28;20131;-78
2023/01/25 02:04:05;;;;;;;;;;;;;;;1.89;97.64;103785.78;5083895;28;19930;-78
2023/01/25 02:06:38;;;;;;;;;;;;;;;1.88;97.52;103777.94;5078506;28;19913;-78
2023/01/25 02:09:03;;;;;;;;;;;;;;;1.85;97.65;103773.50;5083865;28;19928;-78
2023/01/25 02:11:29;;;;;;;;;;;;;;;1.84;97.78;103771.75;5093943;28;19924;-78
2023/01/25 02:13:56;;;;;;;;;;;;;;;1.84;97.99;103776.94;5079886;28;19920;-78
2023/01/25 02:16:24;;;;;;;;;;;;;;;1.84;98.16;103770.88;5086673;28;19920;-78
2023/01/25 02:18:50;;;;;;;;;;;;;;;1.84;98.46;103774.34;5079084;28;19915;-78
2023/01/25 02:21:16;;;;;;;;;;;;;;;1.83;98.25;103766.53;5078640;28;19920;-78
2023/01/25 02:23:49;;;;;;;;;;;;;;;1.83;97.97;103769.97;5077351;28;20123;-78
2023/01/25 02:26:15;;;;;;;;;;;;;;;1.80;97.96;103764.69;5078738;28;19924;-78
2023/01/25 02:28:45;;;;;;;;;;;;;;;1.82;98.14;103762.16;5078506;28;20255;-78
2023/01/25 02:31:11;;;;;;;;;;;;;;;1.81;98.23;103757.81;5083203;28;19919;-78
2023/01/25 02:33:36;;;;;;;;;;;;;;;1.80;98.25;103762.13;5077855;28;19948;-78
2023/01/25 02:36:07;;;;;;;;;;;;;;;1.81;98.21;103757.81;5082025;28;19916;-78
2023/01/25 02:38:34;;;;;;;;;;;;;;;1.81;98.45;103750.94;5077963;28;19916;-78
2023/01/25 02:41:03;;;;;;;;;;;;;;;1.82;98.48;103746.66;5087857;28;19954;-78
2023/01/25 02:43:30;;;;;;;;;;;;;;;1.82;98.68;103746.66;5087767;28;19988;-78
2023/01/25 02:46:09;;;;;;;;;;;;;;;1.82;98.75;103744.97;5084260;28;19939;-78
2023/01/25 02:48:34;;;;;;;;;;;;;;;1.83;98.79;103738.09;5095396;28;20174;-78
2023/01/25 02:51:00;;;;;;;;;;;;;;;1.83;98.73;103738.97;5091026;28;19935;-78
2023/01/25 02:53:26;;;;;;;;;;;;;;;1.84;98.85;103733.00;5077786;28;20219;-78
2023/01/25 02:55:51;;;;;;;;;;;;;;;1.84;98.98;103729.53;5094434;28;19920;-78
2023/01/25 02:58:16;;;;;;;;;;;;;;;1.83;98.98;103732.94;5082013;28;19977;-78
2023/01/25 03:00:42;;;;;;;;;;;;;;;1.84;98.95;103734.72;5096078;28;19920;-78
2023/01/25 03:03:07;;;;;;;;;;;;;;;1.83;98.92;103730.34;5076674;28;19920;-78
2023/01/25 03:05:32;;;;;;;;;;;;;;;1.84;98.94;103726.94;5077086;28;19951;-78
2023/01/25 03:07:57;;;;;;;;;;;;;;;1.83;99.07;103727.75;5077287;28;19958;-78
2023/01/25 03:10:23;;;;;;;;;;;;;;;1.83;99.14;103733.81;5075951;28;19920;-78
2023/01/25 03:12:48;;;;;;;;;;;;;;;1.84;99.28;103722.66;5079246;28;19912;-78
2023/01/25 03:15:13;;;;;;;;;;;;;;;1.84;99.28;103724.38;5088758;28;19962;-79
2023/01/25 03:17:39;;;;;;;;;;;;;;;1.85;99.25;103721.81;5077167;28;19976;-79
2023/01/25 03:20:05;;;;;;;;;;;;;;;1.85;99.20;103720.94;5082707;28;20143;-79
2023/01/25 03:22:30;;;;;;;;;;;;;;;1.84;99.33;103717.50;5077573;28;19991;-79
2023/01/25 03:24:56;;;;;;;;;;;;;;;1.84;99.43;103711.44;5083481;28;19928;-79
2023/01/25 03:27:21;;;;;;;;;;;;;;;1.84;99.46;103714.03;5079245;28;19920;-79
2023/01/25 03:29:46;;;;;;;;;;;;;;;1.83;99.49;103709.66;5097517;28;19931;-78
2023/01/25 03:32:12;;;;;;;;;;;;;;;1.82;99.40;103707.88;5094813;28;19912;-77
2023/01/25 03:34:37;;;;;;;;;;;;;;;1.80;99.22;103704.38;5076993;28;19920;-77
2023/01/25 03:37:02;;;;;;;;;;;;;;;1.78;98.99;103698.25;5079814;28;19978;-77
2023/01/25 03:39:28;;;;;;;;;;;;;;;1.77;98.95;103709.44;5084460;28;19935;-77
2023/01/25 03:41:53;;;;;;;;;;;;;;;1.76;99.01;103698.19;5059859;28;19916;-77
2023/01/25 03:44:19;;;;;;;;;;;;;;;1.76;99.19;103692.13;5078498;28;20239;-77
2023/01/25 03:46:44;;;;;;;;;;;;;;;1.76;99.09;103694.72;5077104;28;19920;-77
2023/01/25 03:49:09;;;;;;;;;;;;;;;1.74;99.06;103689.47;5081545;28;20235;-77
2023/01/25 03:51:37;;;;;;;;;;;;;;;1.75;98.99;103695.53;5075133;28;19980;-77
2023/01/25 03:54:03;;;;;;;;;;;;;;;1.75;99.16;103698.13;5082034;28;20397;-77
2023/01/25 03:56:28;;;;;;;;;;;;;;;1.74;99.19;103694.66;5076023;28;19908;-77
2023/01/25 03:58:53;;;;;;;;;;;;;;;1.71;98.90;103699.69;5085412;28;20416;-77
2023/01/25 04:01:18;;;;;;;;;;;;;;;1.69;98.39;103697.06;5058643;28;20127;-77
2023/01/25 04:03:44;;;;;;;;;;;;;;;1.68;98.54;103699.59;5077356;28;20088;-77
2023/01/25 04:06:09;;;;;;;;;;;;;;;1.67;98.37;103690.94;5075189;28;19936;-77
2023/01/25 04:08:35;;;;;;;;;;;;;;;1.67;98.38;103696.13;5077069;28;19913;-77
2023/01/25 04:11:01;;;;;;;;;;;;;;;1.65;98.23;103686.53;5076937;28;20001;-77
2023/01/25 04:13:27;;;;;;;;;;;;;;;1.64;98.32;103685.66;5076210;28;19987;-77
2023/01/25 04:15:52;;;;;;;;;;;;;;;1.64;98.24;103682.19;5075519;28;19951;-77
2023/01/25 04:18:18;;;;;;;;;;;;;;;1.65;98.33;103683.94;5075436;28;20081;-77
2023/01/25 04:20:43;;;;;;;;;;;;;;;1.62;98.35;103676.97;5075540;28;20342;-77
2023/01/25 04:23:09;;;;;;;;;;;;;;;1.63;98.45;103681.28;5076944;28;20223;-77
2023/01/25 04:25:35;;;;;;;;;;;;;;;1.63;98.50;103677.81;5076209;28;20281;-77
2023/01/25 04:28:00;;;;;;;;;;;;;;;1.63;98.88;103676.13;5077896;28;20227;-77
2023/01/25 04:30:26;;;;;;;;;;;;;;;1.63;98.85;103675.25;5076202;28;20147;-77
2023/01/25 04:32:51;;;;;;;;;;;;;;;1.63;98.98;103670.94;5077117;28;19992;-77
2023/01/25 04:35:19;;;;;;;;;;;;;;;1.64;98.93;103679.59;5075079;28;19962;-77
2023/01/25 04:37:51;;;;;;;;;;;;;;;1.64;99.05;103674.44;5092866;28;20187;-77
2023/01/25 04:40:16;;;;;;;;;;;;;;;1.65;99.04;103671.91;5074923;28;19913;-77
2023/01/25 04:42:41;;;;;;;;;;;;;;;1.64;99.07;103658.94;5077955;28;19951;-77
2023/01/25 04:45:07;;;;;;;;;;;;;;;1.64;99.00;103664.09;5076537;28;19921;-77
2023/01/25 04:47:32;;;;;;;;;;;;;;;1.62;98.91;103658.88;5076302;28;19917;-77
2023/01/25 04:49:57;;;;;;;;;;;;;;;1.61;98.91;103657.09;5060796;28;20249;-77
2023/01/25 04:52:23;;;;;;;;;;;;;;;1.60;98.90;103652.75;5080282;28;20016;-77
2023/01/25 04:54:48;;;;;;;;;;;;;;;1.60;98.89;103647.59;5075937;28;19926;-77
2023/01/25 04:57:13;;;;;;;;;;;;;;;1.61;99.05;103643.31;5077462;28;20254;-77
2023/01/25 04:59:39;;;;;;;;;;;;;;;1.60;99.15;103642.44;5081273;28;20008;-77
2023/01/25 05:02:04;;;;;;;;;;;;;;;1.61;99.24;103643.31;5078708;28;19925;-77
2023/01/25 05:04:29;;;;;;;;;;;;;;;1.61;99.25;103640.72;5081701;28;19960;-77
2023/01/25 05:06:55;;;;;;;;;;;;;;;1.61;99.45;103638.13;5095386;28;19916;-77
2023/01/25 05:09:20;;;;;;;;;;;;;;;1.61;99.46;103643.31;5086040;28;19947;-77
2023/01/25 05:11:45;;;;;;;;;;;;;;;1.62;99.46;103639.88;5071551;28;19963;-77
2023/01/25 05:14:10;;;;;;;;;;;;;;;1.62;99.45;103639.88;5063954;28;19928;-77
2023/01/25 05:16:36;;;;;;;;;;;;;;;1.63;99.49;103641.66;5087525;28;19931;-77
2023/01/25 05:19:01;;;;;;;;;;;;;;;1.62;99.47;103639.88;5078708;28;19924;-77
2023/01/25 05:24:10;;;;;;;;;;;;;;;1.62;99.61;103645.94;5079778;28;19919;-77
2023/01/25 05:29:19;;;;;;;;;;;;;;;1.60;99.66;103646.69;5078257;28;19966;-77
2023/01/25 05:31:44;;;;;;;;;;;;;;;1.58;99.51;103641.47;5087225;28;19928;-77
2023/01/25 05:34:10;;;;;;;;;;;;;;;1.58;99.58;103638.88;5079521;28;19919;-77
2023/01/25 05:36:35;;;;;;;;;;;;;;;1.57;99.58;103624.22;5078315;28;20131;-77
2023/01/25 05:39:01;;;;;;;;;;;;;;;1.57;99.51;103637.13;5078194;28;20212;-77
2023/01/25 05:41:26;;;;;;;;;;;;;;;1.54;99.52;103626.66;5078962;28;20123;-77
2023/01/25 05:43:51;;;;;;;;;;;;;;;1.56;99.43;103631.91;5078197;28;19912;-77
2023/01/25 05:46:17;;;;;;;;;;;;;;;1.56;99.61;103624.16;5079607;28;19955;-77
2023/01/25 05:48:42;;;;;;;;;;;;;;;1.55;99.59;103618.09;5077960;28;19912;-77
2023/01/25 05:51:07;;;;;;;;;;;;;;;1.54;99.59;103626.66;5071531;28;19970;-77
2023/01/25 05:53:32;;;;;;;;;;;;;;;1.56;99.65;103632.75;5078240;28;19913;-77
2023/01/25 05:56:05;;;;;;;;;;;;;;;1.56;99.62;103639.63;5063605;28;20212;-77
2023/01/25 05:58:30;;;;;;;;;;;;;;;1.54;99.60;103632.69;5065969;28;19979;-77
2023/01/25 06:00:58;;;;;;;;;;;;;;;1.54;99.48;103645.63;5097010;28;19920;-77
2023/01/25 06:03:23;;;;;;;;;;;;;;;1.54;99.56;103640.44;5096538;28;19922;-77
2023/01/25 06:05:53;;;;;;;;;;;;;;;1.53;99.59;103636.13;5083693;28;19959;-77
2023/01/25 06:08:18;;;;;;;;;;;;;;;1.54;99.57;103637.88;5077258;28;19989;-77
2023/01/25 06:10:43;;;;;;;;;;;;;;;1.54;99.60;103640.44;5077232;28;20207;-77
2023/01/25 06:13:09;;;;;;;;;;;;;;;1.54;99.69;103634.41;5080446;28;19928;-77
2023/01/25 06:15:34;;;;;;;;;;;;;;;1.54;99.63;103637.88;5077170;28;20318;-77
2023/01/25 06:17:59;;;;;;;;;;;;;;;1.53;99.61;103641.28;5077839;28;20220;-77
2023/01/25 06:20:24;;;;;;;;;;;;;;;1.53;99.71;103637.81;5077580;28;19931;-77
2023/01/25 06:22:50;;;;;;;;;;;;;;;1.53;99.65;103636.13;5062587;28;19956;-77
2023/01/25 06:25:15;;;;;;;;;;;;;;;1.54;99.68;103634.41;5058082;28;19925;-77
2023/01/25 06:27:40;;;;;;;;;;;;;;;1.53;99.57;103627.50;5078669;28;20267;-78
2023/01/25 06:30:06;;;;;;;;;;;;;;;1.52;99.54;103638.63;5076341;28;20077;-77
2023/01/25 06:32:32;;;;;;;;;;;;;;;1.52;99.64;103638.63;5077494;28;19920;-77
2023/01/25 06:34:57;;;;;;;;;;;;;;;1.50;99.69;103628.22;5077459;28;19913;-76
2023/01/25 06:37:23;;;;;;;;;;;;;;;1.51;99.77;103627.44;5076687;28;19976;-76
2023/01/25 06:39:48;;;;;;;;;;;;;;;1.52;99.81;103630.88;5077666;28;19938;-76
2023/01/25 06:42:14;;;;;;;;;;;;;;;1.52;99.92;103628.28;5079764;28;20085;-76
2023/01/25 06:44:39;;;;;;;;;;;;;;;1.52;100.00;103625.72;5077043;28;20041;-77
2023/01/25 06:47:07;;;;;;;;;;;;;;;1.53;99.92;103628.38;5080073;28;19920;-77
2023/01/25 06:49:32;;;;;;;;;;;;;;;1.53;99.88;103622.31;5070307;28;20216;-77
2023/01/25 06:51:59;;;;;;;;;;;;;;;1.54;99.92;103624.06;5082612;28;19955;-77
2023/01/25 06:54:25;;;;;;;;;;;;;;;1.53;100.00;103625.78;5061637;28;19931;-77
2023/01/25 06:56:50;;;;;;;;;;;;;;;1.54;100.00;103624.06;5078595;28;19944;-77
2023/01/25 06:59:16;;;;;;;;;;;;;;;1.53;100.00;103623.19;5076213;28;19932;-77
2023/01/25 07:01:41;;;;;;;;;;;;;;;1.53;99.84;103632.66;5079307;28;19921;-77
2023/01/25 07:04:07;;;;;;;;;;;;;;;1.51;100.00;103622.25;5079584;28;19923;-77
2023/01/25 07:06:33;;;;;;;;;;;;;;;1.53;99.94;103630.06;5091444;28;19920;-77
2023/01/25 07:09:06;;;;;;;;;;;;;;;1.50;100.00;103622.19;5083691;28;19923;-77
2023/01/25 07:11:31;;;;;;;;;;;;;;;1.51;100.00;103618.78;5076666;28;19916;-77
2023/01/25 07:13:56;;;;;;;;;;;;;;;1.50;100.00;103617.03;5075246;28;19986;-77
2023/01/25 07:16:21;;;;;;;;;;;;;;;1.50;99.93;103622.19;5075712;28;19909;-77
2023/01/25 07:18:47;;;;;;;;;;;;;;;1.50;100.00;103619.59;5081780;28;19923;-77
2023/01/25 07:21:13;;;;;;;;;;;;;;;1.49;100.00;103623.00;5077459;28;19928;-77
2023/01/25 07:23:40;;;;;;;;;;;;;;;1.49;100.00;103623.00;5081820;28;19917;-77
2023/01/25 07:26:10;;;;;;;;;;;;;;;1.49;100.00;103623.00;5071240;28;20242;-77
2023/01/25 07:28:35;;;;;;;;;;;;;;;1.50;100.00;103627.34;5077790;28;19924;-77
2023/01/25 07:31:04;;;;;;;;;;;;;;;1.49;100.00;103623.91;5083445;28;20159;-77
2023/01/25 07:33:30;;;;;;;;;;;;;;;1.49;100.00;103613.56;5081304;28;20005;-77
2023/01/25 07:35:58;;;;;;;;;;;;;;;1.49;100.00;103612.66;5076338;28;19916;-77
2023/01/25 07:38:24;;;;;;;;;;;;;;;1.48;100.00;103611.78;5081910;28;19920;-77
2023/01/25 07:40:52;;;;;;;;;;;;;;;1.47;100.00;103609.13;5075719;28;19952;-77
2023/01/25 07:43:18;;;;;;;;;;;;;;;1.47;99.88;103610.00;5081825;28;19925;-77
2023/01/25 07:45:47;;;;;;;;;;;;;;;1.46;100.00;103597.06;5076794;28;19931;-77
2023/01/25 07:48:13;;;;;;;;;;;;;;;1.45;99.89;103596.16;5080806;28;19925;-77
2023/01/25 07:50:40;;;;;;;;;;;;;;;1.46;99.91;103589.31;5076157;28;19967;-77
2023/01/25 07:53:05;;;;;;;;;;;;;;;1.46;99.97;103592.78;5082241;28;19920;-77
2023/01/25 07:55:30;;;;;;;;;;;;;;;1.46;99.76;103591.91;5079331;28;20258;-77
2023/01/25 07:57:56;;;;;;;;;;;;;;;1.46;99.57;103586.72;5089062;28;19931;-77
2023/01/25 08:00:21;;;;;;;;;;;;;;;1.43;98.70;103582.31;5080241;28;19970;-77
2023/01/25 08:02:49;;;;;;;;;;;;;;;1.42;98.42;103585.72;5077333;28;19912;-77
2023/01/25 08:05:15;;;;;;;;;;;;;;;1.41;98.70;103583.94;5072427;28;19928;-77
2023/01/25 08:07:40;;;;;;;;;;;;;;;1.40;98.90;103589.03;5076889;28;20216;-77
2023/01/25 08:10:06;;;;;;;;;;;;;;;1.38;99.21;103583.81;5096573;28;20250;-77
2023/01/25 08:12:33;;;;;;;;;;;;;;;1.39;99.33;103584.72;5097085;28;20139;-77
2023/01/25 08:14:58;;;;;;;;;;;;;;;1.39;99.24;103589.88;5078506;28;19920;-77
2023/01/25 08:17:23;;;;;;;;;;;;;;;1.40;98.72;103589.03;5076398;28;20237;-77
2023/01/25 08:19:49;;;;;;;;;;;;;;;1.40;98.87;103583.88;5075057;28;19920;-77
2023/01/25 08:22:14;;;;;;;;;;;;;;;1.40;98.98;103587.38;5094975;28;19990;-77
2023/01/25 08:24:39;;;;;;;;;;;;;;;1.40;99.12;103592.53;5079510;28;19932;-77
2023/01/25 08:27:04;;;;;;;;;;;;;;;1.39;98.95;103593.34;5079277;28;19935;-77
2023/01/25 08:29:30;;;;;;;;;;;;;;;1.39;98.82;103582.13;5086554;28;20108;-77
2023/01/25 08:31:55;;;;;;;;;;;;;;;1.37;99.02;103583.78;5090846;28;19931;-77
2023/01/25 08:34:20;;;;;;;;;;;;;;;1.36;98.96;103579.41;5082754;28;19931;-77
2023/01/25 08:36:45;;;;;;;;;;;;;;;1.36;98.85;103582.00;5087501;28;19924;-77
2023/01/25 08:39:11;;;;;;;;;;;;;;;1.34;99.12;103577.63;5097001;28;19931;-77
2023/01/25 08:41:37;;;;;;;;;;;;;;;1.36;99.20;103574.25;5097078;28;19912;-77
2023/01/25 08:44:02;;;;;;;;;;;;;;;1.37;99.39;103576.03;5098815;28;19912;-77
2023/01/25 08:46:29;;;;;;;;;;;;;;;1.38;99.58;103572.59;5097153;28;19995;-77
2023/01/25 08:48:55;;;;;;;;;;;;;;;1.39;99.72;103575.25;5100078;28;19908;-77
2023/01/25 08:51:21;;;;;;;;;;;;;;;1.39;99.74;103572.69;5097570;28;20159;-77
2023/01/25 08:53:46;;;;;;;;;;;;;;;1.41;99.75;103580.50;5098693;28;19923;-77
2023/01/25 08:56:12;;;;;;;;;;;;;;;1.41;99.76;103583.94;5099357;28;19915;-77
2023/01/25 08:58:39;;;;;;;;;;;;;;;1.38;99.36;103578.66;5096702;28;19908;-77
2023/01/25 09:01:06;;;;;;;;;;;;;;;1.38;99.21;103568.31;5097584;28;20316;-77
2023/01/25 09:03:35;;;;;;;;;;;;;;;1.37;99.29;103570.84;5097726;28;19944;-77
2023/01/25 09:06:01;;;;;;;;;;;;;;;1.38;99.27;103575.19;5099381;28;20119;-77
2023/01/25 09:08:26;;;;;;;;;;;;;;;1.36;99.30;103566.50;5099230;28;19920;-77
2023/01/25 09:10:51;;;;;;;;;;;;;;;1.34;98.77;103567.31;5098099;28;20172;-77
2023/01/25 09:13:16;;;;;;;;;;;;;;;1.34;98.78;103559.56;5099876;28;19920;-77
2023/01/25 09:15:42;;;;;;;;;;;;;;;1.26;96.56;103558.38;5100434;28;19920;-77
2023/01/25 09:18:07;;;;;;;;;;;;;;;1.25;96.03;103566.94;5099237;28;19923;-77
2023/01/25 09:20:32;;;;;;;;;;;;;;;1.25;96.99;103561.75;5100016;28;20130;-77
2023/01/25 09:22:58;;;;;;;;;;;;;;;1.26;97.74;103558.38;5100063;28;19927;-77
2023/01/25 09:25:23;;;;;;;;;;;;;;;1.27;98.17;103557.53;5098053;28;20032;-77
2023/01/25 09:27:54;;;;;;;;;;;;;;;1.28;98.53;103559.31;5100046;28;19954;-77
2023/01/25 09:30:19;;;;;;;;;;;;;;;1.29;98.65;103555.03;5098344;28;19916;-77
2023/01/25 09:32:44;;;;;;;;;;;;;;;1.29;98.42;103555.03;5098756;28;20188;-77
2023/01/25 09:35:09;;;;;;;;;;;;;;;1.23;96.32;103552.19;5099234;28;19919;-77
2023/01/25 09:37:35;;;;;;;;;;;;;;;1.23;96.75;103545.34;5081074;28;19913;-77
2023/01/25 09:40:00;;;;;;;;;;;;;;;1.24;97.56;103544.53;5086658;28;19913;-78
2023/01/25 09:42:31;;;;;;;;;;;;;;;1.25;97.87;103545.41;5076985;28;20322;-77
2023/01/25 09:44:56;;;;;;;;;;;;;;;1.23;98.11;103535.00;5079506;28;19921;-77
2023/01/25 09:47:26;;;;;;;;;;;;;;;1.24;97.46;103536.78;5077422;28;19983;-77
2023/01/25 09:50:11;;;;;;;;;;;;;;;1.26;97.79;103534.28;5078403;28;19909;-77
2023/01/25 09:52:39;;;;;;;;;;;;;;;1.27;97.98;103534.31;5078814;28;19908;-77
2023/01/25 09:55:16;;;;;;;;;;;;;;;1.28;98.16;103528.34;5079107;28;20186;-77
2023/01/25 09:57:43;;;;;;;;;;;;;;;1.28;98.44;103527.47;5079140;28;19916;-77
2023/01/25 10:00:12;;;;;;;;;;;;;;;1.31;98.70;103525.88;5077646;28;19922;-77
2023/01/25 10:02:57;;;;;;;;;;;;;;;1.31;98.93;103525.88;5078753;28;20258;-77
2023/01/25 10:05:26;;;;;;;;;;;;;;;1.30;98.70;103516.38;5074314;28;20243;-77
2023/01/25 10:08:02;;;;;;;;;;;;;;;1.32;98.61;103511.28;5077912;28;19923;-77
2023/01/25 10:10:33;;;;;;;;;;;;;;;1.31;98.57;103502.66;5078667;28;19935;-77
2023/01/25 10:12:59;;;;;;;;;;;;;;;1.30;98.60;103493.13;5079559;28;20301;-77
2023/01/25 10:15:44;;;;;;;;;;;;;;;1.30;98.38;103495.72;5078781;28;19924;-77
2023/01/25 10:18:10;;;;;;;;;;;;;;;1.30;98.63;103487.97;5076410;28;19923;-77
2023/01/25 10:20:41;;;;;;;;;;;;;;;1.32;98.49;103482.88;5078170;28;20080;-77
2023/01/25 10:23:20;;;;;;;;;;;;;;;1.32;98.47;103485.44;5078887;28;19908;-77
2023/01/25 10:25:54;;;;;;;;;;;;;;;1.28;97.26;103484.44;5077354;28;20208;-77
2023/01/25 10:28:20;;;;;;;;;;;;;;;1.28;97.55;103488.75;5076849;28;19925;-77
2023/01/25 10:30:54;;;;;;;;;;;;;;;1.27;97.78;103482.66;5075759;28;19947;-77
2023/01/25 10:33:20;;;;;;;;;;;;;;;1.27;97.67;103479.22;5075465;28;19917;-77
2023/01/25 10:35:47;;;;;;;;;;;;;;;1.24;97.12;103471.38;5076324;28;19916;-77
2023/01/25 10:38:20;;;;;;;;;;;;;;;1.22;96.77;103462.66;5076604;28;19915;-77
2023/01/25 10:40:50;;;;;;;;;;;;;;;1.23;97.06;103461.84;5074846;28;19916;-77
2023/01/25 10:43:17;;;;;;;;;;;;;;;1.21;97.33;103459.19;5074879;28;19920;-77
2023/01/25 10:45:43;;;;;;;;;;;;;;;1.20;96.76;103459.13;5076687;28;19920;-77
2023/01/25 10:48:12;;;;;;;;;;;;;;;1.20;97.17;103454.88;5076387;28;19920;-77
2023/01/25 10:50:38;;;;;;;;;;;;;;;1.21;97.25;103448.00;5075566;28;19924;-77
2023/01/25 10:53:03;;;;;;;;;;;;;;;1.22;97.55;103460.06;5077443;28;19985;-77
2023/01/25 10:55:29;;;;;;;;;;;;;;;1.23;97.82;103451.53;5074182;28;19912;-77
2023/01/25 10:57:58;;;;;;;;;;;;;;;1.23;97.61;103454.97;5075898;28;19977;-77
2023/01/25 11:00:24;;;;;;;;;;;;;;;1.24;97.78;103446.41;5079605;28;20229;-78
2023/01/25 11:02:50;;;;;;;;;;;;;;;1.24;97.59;103428.34;5077175;28;19920;-78
2023/01/25 11:05:18;;;;;;;;;;;;;;;1.24;97.50;103417.16;5076561;28;20002;-77
2023/01/25 11:07:44;;;;;;;;;;;;;;;1.22;97.53;103406.75;5076784;28;19920;-77
2023/01/25 11:10:25;;;;;;;;;;;;;;;1.23;97.29;103408.50;5077633;28;20193;-77
2023/01/25 11:13:10;;;;;;;;;;;;;;;1.24;97.83;103399.09;5076879;28;19915;-77
2023/01/25 11:15:35;;;;;;;;;;;;;;;1.23;97.43;103405.06;5071641;28;19916;-77
2023/01/25 11:18:05;;;;;;;;;;;;;;;1.21;97.23;103406.69;5067423;28;20024;-77
2023/01/25 11:20:30;;;;;;;;;;;;;;;1.19;96.56;103398.00;5075025;28;20199;-77
2023/01/25 11:22:56;;;;;;;;;;;;;;;1.19;96.59;103387.69;5074788;28;19920;-77
2023/01/25 11:25:31;;;;;;;;;;;;;;;1.20;97.30;103386.84;5074523;28;19920;-77
2023/01/25 11:28:16;;;;;;;;;;;;;;;1.21;97.71;103379.16;5073256;28;19928;-77
2023/01/25 11:30:42;;;;;;;;;;;;;;;1.24;98.23;103368.97;5074904;28;19916;-77
2023/01/25 11:33:10;;;;;;;;;;;;;;;1.26;98.30;103362.16;5076426;28;19916;-77
2023/01/25 11:35:36;;;;;;;;;;;;;;;1.28;98.59;103347.59;5075464;28;20074;-77
2023/01/25 11:38:13;;;;;;;;;;;;;;;1.30;98.71;103345.09;5076511;28;19909;-77
2023/01/25 11:41:07;;;;;;;;;;;;;;;1.33;98.97;103337.47;5073636;28;19920;-77
2023/01/25 11:43:52;;;;;;;;;;;;;;;1.36;99.12;103336.69;5065825;28;19916;-77
2023/01/25 11:46:23;;;;;;;;;;;;;;;1.39;99.30;103331.66;5072910;28;19920;-77
2023/01/25 11:48:55;;;;;;;;;;;;;;;1.40;99.26;103318.81;5073649;28;19916;-77
2023/01/25 11:51:32;;;;;;;;;;;;;;;1.43;99.43;103321.47;5074801;28;19917;-77
2023/01/25 11:54:16;;;;;;;;;;;;;;;1.44;99.60;103307.75;5072857;28;19943;-77
2023/01/25 11:56:50;;;;;;;;;;;;;;;1.45;99.81;103313.78;5075512;28;19917;-77
2023/01/25 11:59:16;;;;;;;;;;;;;;;1.46;99.78;103295.78;5075170;28;19920;-77
2023/01/25 12:01:47;;;;;;;;;;;;;;;1.46;99.86;103282.84;5076864;28;20210;-77
2023/01/25 12:04:21;;;;;;;;;;;;;;;1.47;99.80;103275.97;5076899;28;19913;-77
2023/01/25 12:06:46;;;;;;;;;;;;;;;1.47;99.66;103271.69;5078631;28;19920;-77
2023/01/25 12:09:24;;;;;;;;;;;;;;;1.48;99.73;103262.25;5081035;28;19915;-77
2023/01/25 12:12:11;;;;;;;;;;;;;;;1.48;99.74;103259.69;5080821;28;19916;-77
2023/01/25 12:14:42;;;;;;;;;;;;;;;1.50;100.00;103252.84;5080816;28;20235;-77
2023/01/25 12:17:14;;;;;;;;;;;;;;;1.52;100.00;103246.91;5079602;28;19940;-77
2023/01/25 12:19:54;;;;;;;;;;;;;;;1.51;99.98;103234.84;5078910;28;19916;-77
2023/01/25 12:22:23;;;;;;;;;;;;;;;1.51;99.70;103237.41;5079287;28;20207;-77
2023/01/25 12:24:48;;;;;;;;;;;;;;;1.51;99.78;103229.69;5078979;28;20323;-77
2023/01/25 12:27:21;;;;;;;;;;;;;;;1.53;99.74;103225.44;5080390;28;20062;-77
2023/01/25 12:29:51;;;;;;;;;;;;;;;1.53;99.86;103209.94;5081006;28;20146;-77
2023/01/25 12:32:23;;;;;;;;;;;;;;;1.55;99.94;103202.25;5074910;28;19916;-77
2023/01/25 12:34:52;;;;;;;;;;;;;;;1.55;100.00;103202.25;5079587;28;19924;-77
2023/01/25 12:37:20;;;;;;;;;;;;;;;1.56;100.00;103203.13;5078315;28;19979;-77
2023/01/25 12:40:05;;;;;;;;;;;;;;;1.56;99.99;103197.94;5078748;28;19909;-77
2023/01/25 12:42:33;;;;;;;;;;;;;;;1.54;99.75;103190.16;5080771;28;20154;-77
2023/01/25 12:45:03;;;;;;;;;;;;;;;1.54;99.75;103188.44;5079632;28;20041;-77
2023/01/25 12:47:47;;;;;;;;;;;;;;;1.54;99.99;103185.84;5078198;28;20216;-77
2023/01/25 12:50:29;;;;;;;;;;;;;;;1.56;100.00;103188.50;5084928;28;19927;-77
2023/01/25 12:53:16;;;;;;;;;;;;;;;1.55;100.00;103186.75;5085421;28;19987;-77